sensor_id;sensor_type;location;lat;lon;timestamp;pressure;altitude;pressure_sealevel;temperature;humidity
10470;BME280;5282;47.052;15.458;2023-01-27T00:00:18;97481.31;;;0.04;100.00
10470;BME280;5282;47.052;15.458;2023-01-27T00:02:47;97481.31;;;0.04;100.00
10470;BME280;5282;47.052;15.458;2023-01-27T00:05:15;97473.38;;;0.04;100.00
10470;BME280;5282;47.052;15.458;2023-01-27T00:07:42;97475.78;;;0.07;100.00
10470;BME280;5282;47.052;15.458;2023-01-27T00:10:13;97477.41;;;0.09;100.00
10470;BME280;5282;47.052;15.458;2023-01-27T00:12:42;97472.44;;;0.05;100.00
10470;BME280;5282;47.052;15.458;2023-01-27T00:15:27;97480.50;;;0.16;100.00
10470;BME280;5282;47.052;15.458;2023-01-27T00:17:56;97483.44;;;0.11;100.00
10470;BME280;5282;47.052;15.458;2023-01-27T00:20:23;97475.91;;;0.05;100.00
10470;BME280;5282;47.052;15.458;2023-01-27T00:23:04;97477.09;;;0.14;100.00
10470;BME280;5282;47.052;15.458;2023-01-27T00:25:49;97475.38;;;0.13;100.00
10470;BME280;5282;47.052;15.458;2023-01-27T00:28:23;97476.47;;;0.10;100.00
10470;BME280;5282;47.052;15.458;2023-01-27T00:30:50;97467.25;;;0.16;100.00
10470;BME280;5282;47.052;15.458;2023-01-27T00:33:18;97467.13;;;0.18;100.00
10470;BME280;5282;47.052;15.458;2023-01-27T00:35:56;97468.72;;;0.20;100.00
10470;BME280;5282;47.052;15.458;2023-01-27T00:38:24;97466.94;;;0.21;100.00
10470;BME280;5282;47.052;15.458;2023-01-27T00:40:51;97466.06;;;0.20;100.00
10470;BME280;5282;47.052;15.458;2023-01-27T00:43:49;97462.97;;;0.01;100.00
10470;BME280;5282;47.052;15.458;2023-01-27T00:46:17;97470.28;;;-0.03;100.00
10470;BME280;5282;47.052;15.458;2023-01-27T00:48:46;97469.47;;;0.09;100.00
10470;BME280;5282;47.052;15.458;2023-01-27T00:51:13;97466.50;;;0.14;100.00
10470;BME280;5282;47.052;15.458;2023-01-27T00:53:40;97470.84;;;0.15;100.00
10470;BME280;5282;47.052;15.458;2023-01-27T00:56:07;97473.25;;;0.18;100.00
10470;BME280;5282;47.052;15.458;2023-01-27T00:58:34;97469.03;;;0.15;100.00
10470;BME280;5282;47.052;15.458;2023-01-27T01:01:03;97480.13;;;0.08;100.00
10470;BME280;5282;47.052;15.458;2023-01-27T01:03:32;97476.22;;;0.01;100.00
10470;BME280;5282;47.052;15.458;2023-01-27T01:06:02;97475.16;;;0.03;100.00
10470;BME280;5282;47.052;15.458;2023-01-27T01:08:29;97468.34;;;-0.14;100.00
10470;BME280;5282;47.052;15.458;2023-01-27T01:10:56;97474.59;;;-0.15;100.00
10470;BME280;5282;47.052;15.458;2023-01-27T01:13:23;97470.72;;;0.04;100.00
10470;BME280;5282;47.052;15.458;2023-01-27T01:15:52;97473.88;;;0.09;100.00
10470;BME280;5282;47.052;15.458;2023-01-27T01:18:19;97469.97;;;0.02;100.00
10470;BME280;5282;47.052;15.458;2023-01-27T01:20:48;97471.94;;;-0.15;100.00
10470;BME280;5282;47.052;15.458;2023-01-27T01:23:17;97477.16;;;-0.01;100.00
10470;BME280;5282;47.052;15.458;2023-01-27T01:25:51;97475.50;;;-0.29;100.00
10470;BME280;5282;47.052;15.458;2023-01-27T01:28:21;97471.00;;;-0.41;100.00
10470;BME280;5282;47.052;15.458;2023-01-27T01:30:48;97471.47;;;-0.35;100.00
10470;BME280;5282;47.052;15.458;2023-01-27T01:33:15;97478.94;;;-0.14;100.00
10470;BME280;5282;47.052;15.458;2023-01-27T01:35:43;97470.31;;;-0.30;100.00
10470;BME280;5282;47.052;15.458;2023-01-27T01:38:10;97473.44;;;-0.11;100.00
10470;BME280;5282;47.052;15.458;2023-01-27T01:40:42;97475.63;;;-0.30;100.00
10470;BME280;5282;47.052;15.458;2023-01-27T01:43:13;97471.16;;;-0.30;100.00
10470;BME280;5282;47.052;15.458;2023-01-27T01:45:50;97473.22;;;-0.48;100.00
10470;BME280;5282;47.052;15.458;2023-01-27T01:48:21;97459.00;;;-0.60;100.00
10470;BME280;5282;47.052;15.458;2023-01-27T01:50:52;97462.44;;;-0.45;100.00
10470;BME280;5282;47.052;15.458;2023-01-27T01:53:22;97452.97;;;-0.22;100.00
10470;BME280;5282;47.052;15.458;2023-01-27T01:55:56;97453.22;;;-0.12;100.00
10470;BME280;5282;47.052;15.458;2023-01-27T01:58:25;97443.06;;;-0.05;100.00
10470;BME280;5282;47.052;15.458;2023-01-27T02:00:53;97449.00;;;-0.02;100.00
10470;BME280;5282;47.052;15.458;2023-01-27T02:03:22;97442.75;;;-0.01;100.00
10470;BME280;5282;47.052;15.458;2023-01-27T02:05:52;97448.25;;;-0.04;100.00
10470;BME280;5282;47.052;15.458;2023-01-27T02:08:21;97444.06;;;-0.34;100.00
10470;BME280;5282;47.052;15.458;2023-01-27T02:10:51;97450.47;;;-0.51;100.00
10470;BME280;5282;47.052;15.458;2023-01-27T02:13:21;97447.47;;;-0.32;100.00
10470;BME280;5282;47.052;15.458;2023-01-27T02:15:49;97439.28;;;-0.28;100.00
10470;BME280;5282;47.052;15.458;2023-01-27T02:18:18;97442.94;;;-0.17;100.00
10470;BME280;5282;47.052;15.458;2023-01-27T02:20:46;97437.22;;;-0.10;100.00
10470;BME280;5282;47.052;15.458;2023-01-27T02:23:23;97435.75;;;-0.14;100.00
10470;BME280;5282;47.052;15.458;2023-01-27T02:25:56;97436.81;;;-0.44;100.00
10470;BME280;5282;47.052;15.458;2023-01-27T02:28:27;97435.94;;;-0.30;100.00
10470;BME280;5282;47.052;15.458;2023-01-27T02:30:54;97432.66;;;-0.21;100.00
10470;BME280;5282;47.052;15.458;2023-01-27T02:33:21;97435.13;;;-0.18;100.00
10470;BME280;5282;47.052;15.458;2023-01-27T02:35:53;97431.91;;;-0.23;100.00
10470;BME280;5282;47.052;15.458;2023-01-27T02:38:22;97434.88;;;-0.15;100.00
10470;BME280;5282;47.052;15.458;2023-01-27T02:40:54;97444.53;;;-0.14;100.00
10470;BME280;5282;47.052;15.458;2023-01-27T02:43:23;97434.81;;;-0.13;100.00
10470;BME280;5282;47.052;15.458;2023-01-27T02:45:52;97432.88;;;-0.11;100.00
10470;BME280;5282;47.052;15.458;2023-01-27T02:48:19;97431.84;;;-0.09;100.00
10470;BME280;5282;47.052;15.458;2023-01-27T02:50:46;97435.63;;;-0.13;100.00
10470;BME280;5282;47.052;15.458;2023-01-27T02:53:14;97439.44;;;-0.17;100.00
10470;BME280;5282;47.052;15.458;2023-01-27T02:55:41;97440.28;;;-0.17;100.00
10470;BME280;5282;47.052;15.458;2023-01-27T02:58:09;97432.16;;;-0.13;100.00
10470;BME280;5282;47.052;15.458;2023-01-27T03:00:36;97435.53;;;-0.11;100.00
10470;BME280;5282;47.052;15.458;2023-01-27T03:03:03;97429.38;;;-0.12;100.00
10470;BME280;5282;47.052;15.458;2023-01-27T03:05:30;97429.28;;;-0.10;100.00
10470;BME280;5282;47.052;15.458;2023-01-27T03:07:57;97424.09;;;-0.12;100.00
10470;BME280;5282;47.052;15.458;2023-01-27T03:10:24;97425.16;;;-0.14;100.00
10470;BME280;5282;47.052;15.458;2023-01-27T03:12:53;97424.28;;;-0.15;100.00
10470;BME280;5282;47.052;15.458;2023-01-27T03:15:22;97416.66;;;-0.20;100.00
10470;BME280;5282;47.052;15.458;2023-01-27T03:18:09;97415.84;;;-0.20;100.00
10470;BME280;5282;47.052;15.458;2023-01-27T03:20:38;97416.19;;;-0.52;100.00
10470;BME280;5282;47.052;15.458;2023-01-27T03:23:05;97411.16;;;-0.57;100.00
10470;BME280;5282;47.052;15.458;2023-01-27T03:25:32;97413.41;;;-0.64;100.00
10470;BME280;5282;47.052;15.458;2023-01-27T03:27:59;97414.19;;;-0.76;100.00
10470;BME280;5282;47.052;15.458;2023-01-27T03:30:28;97409.91;;;-0.51;100.00
10470;BME280;5282;47.052;15.458;2023-01-27T03:32:55;97412.94;;;-0.43;100.00
10470;BME280;5282;47.052;15.458;2023-01-27T03:35:22;97408.91;;;-0.36;100.00
10470;BME280;5282;47.052;15.458;2023-01-27T03:37:58;97406.88;;;-0.45;100.00
10470;BME280;5282;47.052;15.458;2023-01-27T03:40:42;97402.69;;;-0.35;100.00
10470;BME280;5282;47.052;15.458;2023-01-27T03:43:27;97407.78;;;-0.32;100.00
10470;BME280;5282;47.052;15.458;2023-01-27T03:46:12;97410.41;;;-0.32;100.00
10470;BME280;5282;47.052;15.458;2023-01-27T03:48:49;97406.81;;;-0.30;100.00
10470;BME280;5282;47.052;15.458;2023-01-27T03:51:17;97405.97;;;-0.31;100.00
10470;BME280;5282;47.052;15.458;2023-01-27T03:53:45;97403.31;;;-0.31;100.00
10470;BME280;5282;47.052;15.458;2023-01-27T03:56:12;97401.53;;;-0.30;100.00
10470;BME280;5282;47.052;15.458;2023-01-27T03:58:40;97400.59;;;-0.29;100.00
10470;BME280;5282;47.052;15.458;2023-01-27T04:01:14;97399.72;;;-0.30;100.00
10470;BME280;5282;47.052;15.458;2023-01-27T04:03:43;97398.03;;;-0.31;100.00
10470;BME280;5282;47.052;15.458;2023-01-27T04:06:31;97394.22;;;-0.27;100.00
10470;BME280;5282;47.052;15.458;2023-01-27T04:09:21;97391.78;;;-0.30;100.00
10470;BME280;5282;47.052;15.458;2023-01-27T04:11:50;97396.31;;;-0.32;100.00
10470;BME280;5282;47.052;15.458;2023-01-27T04:14:29;97393.22;;;-0.39;100.00
10470;BME280;5282;47.052;15.458;2023-01-27T04:17:00;97389.13;;;-0.43;100.00
10470;BME280;5282;47.052;15.458;2023-01-27T04:19:28;97390.59;;;-0.39;100.00
10470;BME280;5282;47.052;15.458;2023-01-27T04:21:59;97393.03;;;-0.36;100.00
10470;BME280;5282;47.052;15.458;2023-01-27T04:24:27;97385.31;;;-0.39;100.00
10470;BME280;5282;47.052;15.458;2023-01-27T04:26:56;97390.81;;;-0.42;100.00
10470;BME280;5282;47.052;15.458;2023-01-27T04:29:25;97393.34;;;-0.40;100.00
10470;BME280;5282;47.052;15.458;2023-01-27T04:31:54;97397.50;;;-0.36;100.00
10470;BME280;5282;47.052;15.458;2023-01-27T04:34:24;97390.28;;;-0.34;100.00
10470;BME280;5282;47.052;15.458;2023-01-27T04:36:51;97389.75;;;-0.52;100.00
10470;BME280;5282;47.052;15.458;2023-01-27T04:39:18;97395.34;;;-0.44;100.00
10470;BME280;5282;47.052;15.458;2023-01-27T04:41:45;97389.75;;;-0.39;100.00
10470;BME280;5282;47.052;15.458;2023-01-27T04:44:13;97398.41;;;-0.50;100.00
10470;BME280;5282;47.052;15.458;2023-01-27T04:46:40;97399.94;;;-0.60;100.00
10470;BME280;5282;47.052;15.458;2023-01-27T04:49:09;97403.28;;;-0.44;100.00
10470;BME280;5282;47.052;15.458;2023-01-27T04:51:38;97405.25;;;-0.60;100.00
10470;BME280;5282;47.052;15.458;2023-01-27T04:54:05;97408.59;;;-0.71;100.00
10470;BME280;5282;47.052;15.458;2023-01-27T04:56:33;97399.00;;;-0.59;100.00
10470;BME280;5282;47.052;15.458;2023-01-27T04:59:02;97398.94;;;-0.45;100.00
10470;BME280;5282;47.052;15.458;2023-01-27T05:01:29;97402.34;;;-0.43;100.00
10470;BME280;5282;47.052;15.458;2023-01-27T05:03:56;97402.34;;;-0.43;100.00
10470;BME280;5282;47.052;15.458;2023-01-27T05:06:24;97406.00;;;-0.58;100.00
10470;BME280;5282;47.052;15.458;2023-01-27T05:08:53;97403.91;;;-0.53;100.00
10470;BME280;5282;47.052;15.458;2023-01-27T05:11:20;97408.75;;;-0.60;100.00
10470;BME280;5282;47.052;15.458;2023-01-27T05:13:47;97405.69;;;-0.54;100.00
10470;BME280;5282;47.052;15.458;2023-01-27T05:16:15;97407.81;;;-0.59;100.00
10470;BME280;5282;47.052;15.458;2023-01-27T05:18:45;97404.84;;;-0.54;100.00
10470;BME280;5282;47.052;15.458;2023-01-27T05:21:14;97416.44;;;-0.70;100.00
10470;BME280;5282;47.052;15.458;2023-01-27T05:23:42;97412.97;;;-0.57;100.00
10470;BME280;5282;47.052;15.458;2023-01-27T05:26:12;97408.97;;;-0.50;100.00
10470;BME280;5282;47.052;15.458;2023-01-27T05:28:40;97411.53;;;-0.49;100.00
10470;BME280;5282;47.052;15.458;2023-01-27T05:31:10;97415.94;;;-0.62;100.00
10470;BME280;5282;47.052;15.458;2023-01-27T05:33:38;97413.59;;;-0.67;100.00
10470;BME280;5282;47.052;15.458;2023-01-27T05:36:07;97417.78;;;-0.77;100.00
10470;BME280;5282;47.052;15.458;2023-01-27T05:38:37;97422.28;;;-0.65;100.00
10470;BME280;5282;47.052;15.458;2023-01-27T05:41:05;97418.09;;;-0.54;100.00
10470;BME280;5282;47.052;15.458;2023-01-27T05:43:35;97422.63;;;-0.56;100.00
10470;BME280;5282;47.052;15.458;2023-01-27T05:46:07;97423.91;;;-0.49;100.00
10470;BME280;5282;47.052;15.458;2023-01-27T05:48:35;97413.88;;;-0.44;100.00
10470;BME280;5282;47.052;15.458;2023-01-27T05:51:03;97417.47;;;-0.45;100.00
10470;BME280;5282;47.052;15.458;2023-01-27T05:53:31;97427.19;;;-0.45;100.00
10470;BME280;5282;47.052;15.458;2023-01-27T05:55:58;97421.25;;;-0.76;100.00
10470;BME280;5282;47.052;15.458;2023-01-27T05:58:26;97423.16;;;-0.79;100.00
10470;BME280;5282;47.052;15.458;2023-01-27T06:00:54;97428.09;;;-0.59;100.00
10470;BME280;5282;47.052;15.458;2023-01-27T06:03:21;97433.00;;;-0.53;100.00
10470;BME280;5282;47.052;15.458;2023-01-27T06:05:52;97429.41;;;-0.52;100.00
10470;BME280;5282;47.052;15.458;2023-01-27T06:08:20;97420.63;;;-0.53;100.00
10470;BME280;5282;47.052;15.458;2023-01-27T06:10:48;97424.47;;;-0.44;100.00
10470;BME280;5282;47.052;15.458;2023-01-27T06:13:17;97423.19;;;-0.38;100.00
10470;BME280;5282;47.052;15.458;2023-01-27T06:15:46;97429.81;;;-0.45;100.00
10470;BME280;5282;47.052;15.458;2023-01-27T06:18:17;97431.19;;;-0.53;100.00
10470;BME280;5282;47.052;15.458;2023-01-27T06:20:44;97430.88;;;-0.48;100.00
10470;BME280;5282;47.052;15.458;2023-01-27T06:23:12;97438.53;;;-0.71;100.00
10470;BME280;5282;47.052;15.458;2023-01-27T06:25:41;97434.56;;;-0.64;100.00
10470;BME280;5282;47.052;15.458;2023-01-27T06:28:08;97432.63;;;-0.62;100.00
10470;BME280;5282;47.052;15.458;2023-01-27T06:30:37;97431.94;;;-0.51;100.00
10470;BME280;5282;47.052;15.458;2023-01-27T06:33:05;97424.25;;;-0.41;100.00
10470;BME280;5282;47.052;15.458;2023-01-27T06:35:34;97424.84;;;-0.50;100.00
10470;BME280;5282;47.052;15.458;2023-01-27T06:38:03;97424.16;;;-0.39;100.00
10470;BME280;5282;47.052;15.458;2023-01-27T06:40:31;97416.31;;;-0.41;100.00
10470;BME280;5282;47.052;15.458;2023-01-27T06:42:58;97420.63;;;-0.40;100.00
10470;BME280;5282;47.052;15.458;2023-01-27T06:45:26;97420.63;;;-0.40;100.00
10470;BME280;5282;47.052;15.458;2023-01-27T06:47:54;97418.56;;;-0.35;100.00
10470;BME280;5282;47.052;15.458;2023-01-27T06:50:21;97421.00;;;-0.32;100.00
10470;BME280;5282;47.052;15.458;2023-01-27T06:52:51;97422.13;;;-0.49;100.00
10470;BME280;5282;47.052;15.458;2023-01-27T06:55:18;97425.22;;;-0.42;100.00
10470;BME280;5282;47.052;15.458;2023-01-27T06:57:45;97423.41;;;-0.41;100.00
10470;BME280;5282;47.052;15.458;2023-01-27T07:00:14;97427.44;;;-0.36;100.00
10470;BME280;5282;47.052;15.458;2023-01-27T07:02:42;97428.94;;;-0.32;100.00
10470;BME280;5282;47.052;15.458;2023-01-27T07:05:09;97432.34;;;-0.29;100.00
10470;BME280;5282;47.052;15.458;2023-01-27T07:07:36;97430.28;;;-0.39;100.00
10470;BME280;5282;47.052;15.458;2023-01-27T07:10:06;97433.28;;;-0.30;100.00
10470;BME280;5282;47.052;15.458;2023-01-27T07:12:33;97427.88;;;-0.29;100.00
10470;BME280;5282;47.052;15.458;2023-01-27T07:15:03;97434.00;;;-0.28;100.00
10470;BME280;5282;47.052;15.458;2023-01-27T07:17:30;97428.19;;;-0.34;100.00
10470;BME280;5282;47.052;15.458;2023-01-27T07:19:57;97442.22;;;-0.46;100.00
10470;BME280;5282;47.052;15.458;2023-01-27T07:22:24;97434.63;;;-0.38;100.00
10470;BME280;5282;47.052;15.458;2023-01-27T07:24:51;97436.66;;;-0.28;100.00
10470;BME280;5282;47.052;15.458;2023-01-27T07:27:24;97441.22;;;-0.30;100.00
10470;BME280;5282;47.052;15.458;2023-01-27T07:29:51;97439.94;;;-0.65;100.00
10470;BME280;5282;47.052;15.458;2023-01-27T07:32:18;97446.63;;;-0.59;100.00
10470;BME280;5282;47.052;15.458;2023-01-27T07:34:45;97454.88;;;-0.51;100.00
10470;BME280;5282;47.052;15.458;2023-01-27T07:37:12;97444.22;;;-0.50;100.00
10470;BME280;5282;47.052;15.458;2023-01-27T07:39:39;97454.81;;;-0.50;100.00
10470;BME280;5282;47.052;15.458;2023-01-27T07:42:06;97450.03;;;-0.44;100.00
10470;BME280;5282;47.052;15.458;2023-01-27T07:44:35;97451.09;;;-0.47;100.00
10470;BME280;5282;47.052;15.458;2023-01-27T07:47:02;97455.75;;;-0.51;100.00
10470;BME280;5282;47.052;15.458;2023-01-27T07:49:30;97461.69;;;-0.74;100.00
10470;BME280;5282;47.052;15.458;2023-01-27T07:51:57;97456.53;;;-0.90;100.00
10470;BME280;5282;47.052;15.458;2023-01-27T07:54:23;97460.84;;;-0.75;100.00
10470;BME280;5282;47.052;15.458;2023-01-27T07:56:51;97472.47;;;-0.92;100.00
10470;BME280;5282;47.052;15.458;2023-01-27T07:59:17;97463.09;;;-0.69;100.00
10470;BME280;5282;47.052;15.458;2023-01-27T08:01:46;97466.41;;;-0.80;100.00
10470;BME280;5282;47.052;15.458;2023-01-27T08:04:13;97469.31;;;-0.70;100.00
10470;BME280;5282;47.052;15.458;2023-01-27T08:06:40;97474.91;;;-0.74;100.00
10470;BME280;5282;47.052;15.458;2023-01-27T08:09:06;97465.50;;;-0.93;100.00
10470;BME280;5282;47.052;15.458;2023-01-27T08:11:34;97459.31;;;-0.65;100.00
10470;BME280;5282;47.052;15.458;2023-01-27T08:14:01;97472.47;;;-0.50;100.00
10470;BME280;5282;47.052;15.458;2023-01-27T08:16:28;97463.56;;;-0.49;100.00
10470;BME280;5282;47.052;15.458;2023-01-27T08:18:56;97472.13;;;-0.58;100.00
10470;BME280;5282;47.052;15.458;2023-01-27T08:21:24;97476.50;;;-0.72;100.00
10470;BME280;5282;47.052;15.458;2023-01-27T08:23:52;97482.81;;;-0.60;100.00
10470;BME280;5282;47.052;15.458;2023-01-27T08:26:19;97479.69;;;-0.67;100.00
10470;BME280;5282;47.052;15.458;2023-01-27T08:28:46;97491.91;;;-0.51;100.00
10470;BME280;5282;47.052;15.458;2023-01-27T08:31:15;97484.53;;;-0.46;100.00
10470;BME280;5282;47.052;15.458;2023-01-27T08:33:43;97485.34;;;-0.58;100.00
10470;BME280;5282;47.052;15.458;2023-01-27T08:36:16;97493.38;;;-0.60;100.00
10470;BME280;5282;47.052;15.458;2023-01-27T08:38:44;97490.91;;;-0.49;100.00
10470;BME280;5282;47.052;15.458;2023-01-27T08:41:15;97497.97;;;-0.49;100.00
10470;BME280;5282;47.052;15.458;2023-01-27T08:43:42;97496.72;;;-0.43;100.00
10470;BME280;5282;47.052;15.458;2023-01-27T08:46:10;97490.75;;;-0.33;100.00
10470;BME280;5282;47.052;15.458;2023-01-27T08:48:37;97492.22;;;-0.28;100.00
10470;BME280;5282;47.052;15.458;2023-01-27T08:51:06;97491.13;;;-0.39;100.00
10470;BME280;5282;47.052;15.458;2023-01-27T08:53:34;97487.16;;;-0.32;100.00
10470;BME280;5282;47.052;15.458;2023-01-27T08:56:04;97489.38;;;-0.25;100.00
10470;BME280;5282;47.052;15.458;2023-01-27T08:58:31;97485.59;;;-0.21;100.00
10470;BME280;5282;47.052;15.458;2023-01-27T09:00:59;97485.78;;;-0.24;100.00
10470;BME280;5282;47.052;15.458;2023-01-27T09:03:26;97497.72;;;-0.32;100.00
10470;BME280;5282;47.052;15.458;2023-01-27T09:05:53;97500.16;;;-0.28;100.00
10470;BME280;5282;47.052;15.458;2023-01-27T09:08:21;97497.81;;;-0.33;100.00
10470;BME280;5282;47.052;15.458;2023-01-27T09:10:50;97499.97;;;-0.53;100.00
10470;BME280;5282;47.052;15.458;2023-01-27T09:13:17;97495.00;;;-0.44;100.00
10470;BME280;5282;47.052;15.458;2023-01-27T09:15:47;97503.72;;;-0.42;100.00
10470;BME280;5282;47.052;15.458;2023-01-27T09:18:16;97509.09;;;-0.44;100.00
10470;BME280;5282;47.052;15.458;2023-01-27T09:20:43;97518.19;;;-0.48;100.00
10470;BME280;5282;47.052;15.458;2023-01-27T09:23:10;97522.03;;;-0.39;100.00
10470;BME280;5282;47.052;15.458;2023-01-27T09:25:37;97519.53;;;-0.55;100.00
10470;BME280;5282;47.052;15.458;2023-01-27T09:28:05;97527.19;;;-0.65;100.00
10470;BME280;5282;47.052;15.458;2023-01-27T09:30:41;97534.47;;;-0.54;100.00
10470;BME280;5282;47.052;15.458;2023-01-27T09:33:09;97526.88;;;-0.46;100.00
10470;BME280;5282;47.052;15.458;2023-01-27T09:35:39;97518.03;;;-0.32;100.00
10470;BME280;5282;47.052;15.458;2023-01-27T09:38:08;97523.81;;;-0.40;100.00
10470;BME280;5282;47.052;15.458;2023-01-27T09:40:47;97524.22;;;-0.19;100.00
10470;BME280;5282;47.052;15.458;2023-01-27T09:43:33;97516.09;;;-0.16;100.00
10470;BME280;5282;47.052;15.458;2023-01-27T09:46:19;97515.38;;;-0.32;100.00
10470;BME280;5282;47.052;15.458;2023-01-27T09:49:07;97518.28;;;-0.22;100.00
10470;BME280;5282;47.052;15.458;2023-01-27T09:51:49;97519.38;;;-0.12;100.00
10470;BME280;5282;47.052;15.458;2023-01-27T09:54:32;97524.69;;;-0.12;100.00
10470;BME280;5282;47.052;15.458;2023-01-27T09:57:10;97508.84;;;-0.26;100.00
10470;BME280;5282;47.052;15.458;2023-01-27T09:59:57;97510.16;;;-0.19;100.00
10470;BME280;5282;47.052;15.458;2023-01-27T10:02:41;97509.09;;;-0.17;100.00
10470;BME280;5282;47.052;15.458;2023-01-27T10:05:34;97499.44;;;-0.58;100.00
10470;BME280;5282;47.052;15.458;2023-01-27T10:11:11;97495.00;;;-0.17;100.00
10470;BME280;5282;47.052;15.458;2023-01-27T10:13:52;97492.53;;;-0.33;100.00
10470;BME280;5282;47.052;15.458;2023-01-27T10:16:42;97485.84;;;-0.39;100.00
10470;BME280;5282;47.052;15.458;2023-01-27T10:19:23;97479.16;;;-0.04;100.00
10470;BME280;5282;47.052;15.458;2023-01-27T10:22:00;97470.28;;;0.10;100.00
10470;BME280;5282;47.052;15.458;2023-01-27T10:24:39;97482.00;;;-0.20;100.00
10470;BME280;5282;47.052;15.458;2023-01-27T10:27:14;97478.56;;;0.18;100.00
10470;BME280;5282;47.052;15.458;2023-01-27T10:29:44;97477.63;;;0.45;100.00
10470;BME280;5282;47.052;15.458;2023-01-27T10:32:22;97478.50;;;0.45;100.00
10470;BME280;5282;47.052;15.458;2023-01-27T10:35:07;97476.25;;;0.26;100.00
10470;BME280;5282;47.052;15.458;2023-01-27T10:37:40;97470.13;;;0.39;100.00
10470;BME280;5282;47.052;15.458;2023-01-27T10:40:17;97464.28;;;0.34;100.00
10470;BME280;5282;47.052;15.458;2023-01-27T10:42:54;97460.34;;;0.78;100.00
10470;BME280;5282;47.052;15.458;2023-01-27T10:45:29;97460.97;;;0.95;100.00
10470;BME280;5282;47.052;15.458;2023-01-27T10:48:34;97461.72;;;0.97;100.00
10470;BME280;5282;47.052;15.458;2023-01-27T10:51:06;97464.44;;;1.08;100.00
10470;BME280;5282;47.052;15.458;2023-01-27T10:53:39;97457.81;;;0.64;100.00
10470;BME280;5282;47.052;15.458;2023-01-27T10:56:12;97457.28;;;0.71;100.00
10470;BME280;5282;47.052;15.458;2023-01-27T10:58:49;97450.84;;;0.63;100.00
10470;BME280;5282;47.052;15.458;2023-01-27T11:01:24;97444.56;;;0.76;100.00
10470;BME280;5282;47.052;15.458;2023-01-27T11:03:59;97451.88;;;0.73;100.00
10470;BME280;5282;47.052;15.458;2023-01-27T11:06:31;97450.03;;;0.99;100.00
10470;BME280;5282;47.052;15.458;2023-01-27T11:09:06;97441.75;;;1.04;100.00
10470;BME280;5282;47.052;15.458;2023-01-27T11:11:36;97442.66;;;1.16;100.00
10470;BME280;5282;47.052;15.458;2023-01-27T11:14:14;97442.44;;;1.19;100.00
10470;BME280;5282;47.052;15.458;2023-01-27T11:16:45;97441.94;;;1.14;100.00
10470;BME280;5282;47.052;15.458;2023-01-27T11:19:29;97433.25;;;1.12;100.00
10470;BME280;5282;47.052;15.458;2023-01-27T11:21:58;97437.44;;;0.90;100.00
10470;BME280;5282;47.052;15.458;2023-01-27T11:24:33;97431.94;;;0.54;100.00
10470;BME280;5282;47.052;15.458;2023-01-27T11:27:09;97439.97;;;0.91;100.00
10470;BME280;5282;47.052;15.458;2023-01-27T11:29:44;97424.88;;;1.05;100.00
10470;BME280;5282;47.052;15.458;2023-01-27T11:32:21;97427.66;;;1.03;100.00
10470;BME280;5282;47.052;15.458;2023-01-27T11:35:00;97422.44;;;1.02;100.00
10470;BME280;5282;47.052;15.458;2023-01-27T11:37:30;97426.13;;;0.62;100.00
10470;BME280;5282;47.052;15.458;2023-01-27T11:39:58;97424.25;;;0.51;100.00
10470;BME280;5282;47.052;15.458;2023-01-27T11:42:28;97420.16;;;0.84;100.00
10470;BME280;5282;47.052;15.458;2023-01-27T11:44:59;97420.88;;;0.86;100.00
10470;BME280;5282;47.052;15.458;2023-01-27T11:47:29;97420.50;;;0.67;100.00
10470;BME280;5282;47.052;15.458;2023-01-27T11:49:59;97411.00;;;0.88;100.00
10470;BME280;5282;47.052;15.458;2023-01-27T11:52:27;97413.09;;;1.09;100.00
10470;BME280;5282;47.052;15.458;2023-01-27T11:55:00;97406.59;;;1.13;100.00
10470;BME280;5282;47.052;15.458;2023-01-27T11:57:29;97415.63;;;1.11;100.00
10470;BME280;5282;47.052;15.458;2023-01-27T11:59:59;97415.28;;;1.15;100.00
10470;BME280;5282;47.052;15.458;2023-01-27T12:02:32;97410.66;;;1.06;100.00
10470;BME280;5282;47.052;15.458;2023-01-27T12:05:07;97415.06;;;0.81;100.00
10470;BME280;5282;47.052;15.458;2023-01-27T12:07:42;97409.47;;;0.60;100.00
10470;BME280;5282;47.052;15.458;2023-01-27T12:10:25;97407.59;;;0.23;100.00
10470;BME280;5282;47.052;15.458;2023-01-27T12:12:54;97394.88;;;0.41;100.00
10470;BME280;5282;47.052;15.458;2023-01-27T12:15:22;97396.09;;;0.74;100.00
10470;BME280;5282;47.052;15.458;2023-01-27T12:17:54;97396.69;;;0.41;100.00
10470;BME280;5282;47.052;15.458;2023-01-27T12:20:31;97392.50;;;0.75;100.00
10470;BME280;5282;47.052;15.458;2023-01-27T12:23:03;97387.69;;;0.94;100.00
10470;BME280;5282;47.052;15.458;2023-01-27T12:25:41;97385.63;;;0.73;100.00
10470;BME280;5282;47.052;15.458;2023-01-27T12:28:20;97386.31;;;0.88;100.00
10470;BME280;5282;47.052;15.458;2023-01-27T12:30:51;97382.53;;;0.79;100.00
10470;BME280;5282;47.052;15.458;2023-01-27T12:33:22;97386.81;;;0.56;100.00
10470;BME280;5282;47.052;15.458;2023-01-27T12:35:56;97377.38;;;0.52;100.00
10470;BME280;5282;47.052;15.458;2023-01-27T12:38:26;97381.66;;;0.91;100.00
10470;BME280;5282;47.052;15.458;2023-01-27T12:40:59;97379.06;;;1.03;100.00
10470;BME280;5282;47.052;15.458;2023-01-27T12:43:27;97380.00;;;1.15;100.00
10470;BME280;5282;47.052;15.458;2023-01-27T12:46:07;97372.81;;;1.04;100.00
10470;BME280;5282;47.052;15.458;2023-01-27T12:48:44;97367.38;;;1.05;100.00
10470;BME280;5282;47.052;15.458;2023-01-27T12:51:16;97368.13;;;1.07;100.00
10470;BME280;5282;47.052;15.458;2023-01-27T12:53:44;97360.75;;;1.24;100.00
10470;BME280;5282;47.052;15.458;2023-01-27T12:56:15;97362.44;;;1.25;100.00
10470;BME280;5282;47.052;15.458;2023-01-27T12:58:44;97373.59;;;1.17;100.00
10470;BME280;5282;47.052;15.458;2023-01-27T13:01:28;97363.03;;;1.29;100.00
10470;BME280;5282;47.052;15.458;2023-01-27T13:03:58;97367.38;;;1.05;100.00
10470;BME280;5282;47.052;15.458;2023-01-27T13:06:34;97363.09;;;1.16;100.00
10470;BME280;5282;47.052;15.458;2023-01-27T13:09:03;97366.81;;;1.13;100.00
10470;BME280;5282;47.052;15.458;2023-01-27T13:11:35;97372.19;;;1.25;100.00
10470;BME280;5282;47.052;15.458;2023-01-27T13:14:07;97364.63;;;1.31;100.00